Time;durP1;ratioP1;P1;durP2;ratioP2;P2;SDS_P1;SDS_P2;PMS_P1;PMS_P2;Temp;Humidity;BMP_temperature;BMP_pressure;BME280_temperature;BME280_humidity;BME280_pressure;Samples;Min_cycle;Max_cycle;Signal;HPM_P1;HPM_P2
2021/08/15 00:00:14;;;;;;;9.63;4.10;;;17.10;99.90;;;;;;4982629;28;20243;-62
2021/08/15 00:02:43;;;;;;;13.50;4.83;;;17.00;99.90;;;;;;4985216;28;20253;-61
2021/08/15 00:05:12;;;;;;;9.63;4.47;;;17.00;99.90;;;;;;4986694;28;20691;-60
2021/08/15 00:07:41;;;;;;;8.70;4.30;;;17.00;99.90;;;;;;4985888;28;20780;-62
2021/08/15 00:10:11;;;;;;;13.60;5.13;;;17.10;99.90;;;;;;4986626;28;20338;-62
2021/08/15 00:12:41;;;;;;;12.97;4.53;;;17.10;99.90;;;;;;4981920;28;20670;-61
2021/08/15 00:15:12;;;;;;;10.40;4.10;;;17.10;99.90;;;;;;4986080;28;20317;-61
2021/08/15 00:17:41;;;;;;;11.20;4.27;;;17.10;99.90;;;;;;4985742;28;20268;-61
2021/08/15 00:20:11;;;;;;;14.10;5.23;;;17.10;99.90;;;;;;4989070;28;20230;-62
2021/08/15 00:22:42;;;;;;;10.37;4.90;;;17.10;99.90;;;;;;4981719;28;20334;-61
2021/08/15 00:25:13;;;;;;;9.50;4.33;;;17.10;99.90;;;;;;4985642;28;20318;-60
2021/08/15 00:27:42;;;;;;;11.33;4.63;;;17.10;99.90;;;;;;4979311;28;20243;-61
2021/08/15 00:30:11;;;;;;;8.90;4.67;;;17.10;99.90;;;;;;4986651;28;20230;-61
2021/08/15 00:32:40;;;;;;;11.97;4.50;;;17.20;99.90;;;;;;4985614;28;20325;-61
2021/08/15 00:35:09;;;;;;;12.47;4.90;;;17.20;99.90;;;;;;4986480;28;20339;-61
2021/08/15 00:37:37;;;;;;;7.10;4.57;;;17.20;99.90;;;;;;4985896;28;20706;-62
2021/08/15 00:40:07;;;;;;;11.37;4.90;;;17.20;99.90;;;;;;4990466;28;20254;-61
2021/08/15 00:42:36;;;;;;;10.57;4.50;;;17.20;99.90;;;;;;4989661;28;20658;-61
2021/08/15 00:45:04;;;;;;;10.20;4.63;;;17.20;99.90;;;;;;4990205;28;20245;-61
2021/08/15 00:47:34;;;;;;;9.93;4.50;;;17.20;99.90;;;;;;4989537;28;20286;-63
2021/08/15 00:50:04;;;;;;;7.63;4.40;;;17.20;99.90;;;;;;4981881;28;20240;-61
2021/08/15 00:52:33;;;;;;;10.50;4.20;;;17.20;99.90;;;;;;4988962;28;20243;-62
2021/08/15 00:55:02;;;;;;;9.97;4.60;;;17.20;99.90;;;;;;4989953;28;20644;-62
2021/08/15 00:57:32;;;;;;;9.27;4.80;;;17.20;99.90;;;;;;4988672;28;20254;-61
2021/08/15 01:00:04;;;;;;;7.90;4.10;;;17.20;99.90;;;;;;4989786;28;20722;-61
2021/08/15 01:02:33;;;;;;;7.67;4.03;;;17.20;99.90;;;;;;4988391;28;20936;-61
2021/08/15 01:05:03;;;;;;;7.43;4.00;;;17.20;99.90;;;;;;4989021;28;20265;-61
2021/08/15 01:07:31;;;;;;;8.67;4.13;;;17.20;99.90;;;;;;4989339;28;20305;-62
2021/08/15 01:09:59;;;;;;;9.73;4.43;;;17.20;99.90;;;;;;4989826;28;20239;-61
2021/08/15 01:12:30;;;;;;;11.43;4.47;;;17.20;99.90;;;;;;5003654;28;20247;-61
2021/08/15 01:15:00;;;;;;;10.20;4.33;;;17.20;99.90;;;;;;4985537;28;20270;-60
2021/08/15 01:17:29;;;;;;;9.13;4.87;;;17.10;99.90;;;;;;4988028;28;20247;-61
2021/08/15 01:19:58;;;;;;;10.60;4.27;;;17.10;99.90;;;;;;4989441;28;20243;-62
2021/08/15 01:22:27;;;;;;;9.27;4.40;;;17.10;99.90;;;;;;4986693;28;20605;-62
2021/08/15 01:24:58;;;;;;;10.47;4.87;;;17.10;99.90;;;;;;4989115;28;20476;-60
2021/08/15 01:27:28;;;;;;;13.70;4.73;;;17.10;99.90;;;;;;4990742;28;20252;-62
2021/08/15 01:29:58;;;;;;;7.83;4.27;;;17.10;99.90;;;;;;4989454;28;20348;-61
2021/08/15 01:32:26;;;;;;;8.90;4.40;;;17.10;99.90;;;;;;4988505;28;20288;-62
2021/08/15 01:34:55;;;;;;;9.50;4.67;;;17.10;99.90;;;;;;4989043;28;20245;-62
2021/08/15 01:37:24;;;;;;;7.93;4.37;;;17.10;99.90;;;;;;4989101;28;20321;-61
2021/08/15 01:39:52;;;;;;;8.50;4.60;;;17.10;99.90;;;;;;4981517;28;20243;-63
2021/08/15 01:42:21;;;;;;;10.80;4.50;;;17.10;99.90;;;;;;4988901;28;20243;-62
2021/08/15 01:44:49;;;;;;;8.30;4.20;;;17.10;99.90;;;;;;4989266;28;20226;-62
2021/08/15 01:47:18;;;;;;;10.50;4.30;;;17.10;99.90;;;;;;4985112;28;20328;-61
2021/08/15 01:49:46;;;;;;;9.30;4.30;;;17.10;99.90;;;;;;4988757;28;20278;-61
2021/08/15 01:52:14;;;;;;;10.30;4.23;;;17.10;99.90;;;;;;4987607;28;20346;-61
2021/08/15 01:54:47;;;;;;;10.97;4.47;;;17.10;99.90;;;;;;5007890;28;20324;-60
2021/08/15 01:57:15;;;;;;;7.33;4.20;;;17.10;99.90;;;;;;5007938;28;20575;-62
2021/08/15 01:59:44;;;;;;;7.70;4.83;;;17.10;99.90;;;;;;5007996;28;20653;-61
2021/08/15 02:02:12;;;;;;;7.57;4.47;;;17.10;99.90;;;;;;5007235;28;20253;-61
2021/08/15 02:04:42;;;;;;;11.20;4.50;;;17.20;99.90;;;;;;5008082;28;20234;-61
2021/08/15 02:07:10;;;;;;;8.47;4.27;;;17.10;99.90;;;;;;5007646;28;20660;-62
2021/08/15 02:09:38;;;;;;;9.93;4.23;;;17.10;99.90;;;;;;5008366;28;20325;-61
2021/08/15 02:12:06;;;;;;;10.93;4.27;;;17.20;99.90;;;;;;5007799;28;20239;-61
2021/08/15 02:14:35;;;;;;;15.03;5.53;;;17.20;99.90;;;;;;5006963;28;20269;-61
2021/08/15 02:17:03;;;;;;;8.77;4.17;;;17.20;99.90;;;;;;5007756;28;20244;-61
2021/08/15 02:19:33;;;;;;;10.37;4.30;;;17.20;99.90;;;;;;5007730;28;20686;-62
2021/08/15 02:22:03;;;;;;;7.33;4.30;;;17.20;99.90;;;;;;5006705;28;20320;-63
2021/08/15 02:24:31;;;;;;;8.80;4.30;;;17.20;99.90;;;;;;5007707;28;20603;-61
2021/08/15 02:26:59;;;;;;;8.73;4.30;;;17.30;99.90;;;;;;5007177;28;20349;-61
2021/08/15 02:29:27;;;;;;;7.10;4.20;;;17.30;99.90;;;;;;5007457;28;20289;-61
2021/08/15 02:31:55;;;;;;;10.60;4.50;;;17.30;99.90;;;;;;5007209;28;20246;-62
2021/08/15 02:34:25;;;;;;;8.73;4.27;;;17.30;99.90;;;;;;5007352;28;20655;-61
2021/08/15 02:36:53;;;;;;;8.80;4.67;;;17.30;99.90;;;;;;5007402;28;20246;-61
2021/08/15 02:39:22;;;;;;;8.40;4.43;;;17.20;99.90;;;;;;5007826;28;20234;-62
2021/08/15 02:41:50;;;;;;;12.47;4.60;;;17.30;99.90;;;;;;5007120;28;20235;-62
2021/08/15 02:44:18;;;;;;;10.53;4.33;;;17.20;99.90;;;;;;5002983;28;20321;-60
2021/08/15 02:46:46;;;;;;;9.17;4.60;;;17.30;99.90;;;;;;5006553;28;20849;-61
2021/08/15 02:49:15;;;;;;;8.17;4.73;;;17.30;99.90;;;;;;5007625;28;20316;-61
2021/08/15 02:51:43;;;;;;;11.23;4.70;;;17.30;99.90;;;;;;5006931;28;20237;-61
2021/08/15 02:54:11;;;;;;;10.97;4.57;;;17.20;99.90;;;;;;5006921;28;20269;-60
2021/08/15 02:56:40;;;;;;;8.50;4.43;;;17.10;99.90;;;;;;5006515;28;20236;-62
2021/08/15 02:59:10;;;;;;;13.00;4.83;;;17.00;99.90;;;;;;5007186;28;20589;-61
2021/08/15 03:01:38;;;;;;;8.70;4.57;;;17.00;99.90;;;;;;5006067;28;20238;-63
2021/08/15 03:04:06;;;;;;;7.67;4.50;;;17.00;99.90;;;;;;5007087;28;20243;-65
2021/08/15 03:06:34;;;;;;;10.60;4.83;;;16.90;99.90;;;;;;5007044;28;20244;-65
2021/08/15 03:09:02;;;;;;;10.47;4.93;;;16.80;99.90;;;;;;5006856;28;20276;-65
2021/08/15 03:11:31;;;;;;;12.90;5.80;;;16.70;99.90;;;;;;5006838;28;20248;-62
2021/08/15 03:14:00;;;;;;;8.83;4.80;;;16.60;99.90;;;;;;5004188;28;20238;-61
2021/08/15 03:16:28;;;;;;;13.93;5.00;;;16.60;99.90;;;;;;5006875;28;20247;-61
2021/08/15 03:18:56;;;;;;;7.57;4.77;;;16.60;99.90;;;;;;5006699;28;20745;-61
2021/08/15 03:21:29;;;;;;;14.37;5.63;;;16.60;99.90;;;;;;5005990;28;20409;-60
2021/08/15 03:23:57;;;;;;;10.23;5.00;;;16.60;99.90;;;;;;5006387;28;20566;-62
2021/08/15 03:26:25;;;;;;;6.57;4.77;;;16.70;99.90;;;;;;5006637;28;20241;-61
2021/08/15 03:28:54;;;;;;;10.63;5.27;;;16.80;99.90;;;;;;5006138;28;20324;-60
2021/08/15 03:31:23;;;;;;;9.33;4.73;;;16.80;99.90;;;;;;5006730;28;20241;-62
2021/08/15 03:33:52;;;;;;;9.07;4.67;;;16.80;99.90;;;;;;5006005;28;20285;-61
2021/08/15 03:36:20;;;;;;;8.57;4.73;;;16.70;99.90;;;;;;5006923;28;20240;-61
2021/08/15 03:38:48;;;;;;;8.30;4.90;;;16.70;99.90;;;;;;5006286;28;20327;-60
2021/08/15 03:41:16;;;;;;;9.60;4.63;;;16.70;99.90;;;;;;5006291;28;20240;-61
2021/08/15 03:43:44;;;;;;;7.93;4.87;;;16.70;99.90;;;;;;5005507;28;20300;-61
2021/08/15 03:46:12;;;;;;;8.67;5.43;;;16.80;99.90;;;;;;5006812;28;20252;-61
2021/08/15 03:48:42;;;;;;;9.00;5.00;;;16.70;99.90;;;;;;5006213;28;20462;-60
2021/08/15 03:51:10;;;;;;;6.70;4.60;;;16.70;99.90;;;;;;5006456;28;20241;-60
2021/08/15 03:53:38;;;;;;;9.90;5.13;;;16.70;99.90;;;;;;5005670;28;20264;-61
2021/08/15 03:56:06;;;;;;;7.27;4.60;;;16.70;99.90;;;;;;5005695;28;20233;-62
2021/08/15 03:58:34;;;;;;;8.70;5.20;;;16.70;99.90;;;;;;5006024;28;20740;-62
2021/08/15 04:01:03;;;;;;;8.93;5.10;;;16.70;99.90;;;;;;5006282;28;20233;-61
2021/08/15 04:03:32;;;;;;;10.17;5.40;;;16.80;99.90;;;;;;5005621;28;20240;-61
2021/08/15 04:06:07;;;;;;;9.63;5.43;;;16.70;99.90;;;;;;5005956;28;20605;-62
2021/08/15 04:08:36;;;;;;;9.03;5.03;;;16.70;99.90;;;;;;5002833;28;20331;-61
2021/08/15 04:11:04;;;;;;;7.40;5.20;;;16.70;99.90;;;;;;5006261;28;20322;-62
2021/08/15 04:13:32;;;;;;;6.67;5.00;;;16.60;99.90;;;;;;5007996;28;20265;-63
2021/08/15 04:16:00;;;;;;;8.03;5.40;;;16.60;99.90;;;;;;5010187;28;20237;-61
2021/08/15 04:18:28;;;;;;;7.23;5.07;;;16.60;99.90;;;;;;5009417;28;20331;-60
2021/08/15 04:20:57;;;;;;;9.77;5.50;;;16.70;99.90;;;;;;5009773;28;20236;-61
2021/08/15 04:23:27;;;;;;;8.80;5.13;;;16.60;99.90;;;;;;5007777;28;20246;-60
2021/08/15 04:25:55;;;;;;;8.93;5.20;;;16.60;99.90;;;;;;5010032;28;20237;-62
2021/08/15 04:28:24;;;;;;;8.23;5.00;;;16.60;99.90;;;;;;5009797;28;20320;-61
2021/08/15 04:30:52;;;;;;;7.27;5.03;;;16.60;99.90;;;;;;5009896;28;20694;-61
2021/08/15 04:33:24;;;;;;;8.23;5.17;;;16.70;99.90;;;;;;4993413;28;20293;-61
2021/08/15 04:35:53;;;;;;;8.70;5.07;;;16.70;99.90;;;;;;4990503;28;20241;-61
2021/08/15 04:38:22;;;;;;;9.73;5.40;;;16.60;99.90;;;;;;4990331;28;20266;-61
2021/08/15 04:40:51;;;;;;;10.07;5.13;;;16.60;99.90;;;;;;4990704;28;20318;-61
2021/08/15 04:43:20;;;;;;;8.57;5.33;;;16.60;99.90;;;;;;4989368;28;20290;-61
2021/08/15 04:45:49;;;;;;;8.10;5.10;;;16.70;99.90;;;;;;4989378;28;20234;-61
2021/08/15 04:48:17;;;;;;;8.20;5.53;;;16.70;99.90;;;;;;4984953;28;20242;-62
2021/08/15 04:50:45;;;;;;;8.20;5.13;;;16.70;99.90;;;;;;4990190;28;20253;-61
2021/08/15 04:53:16;;;;;;;8.60;5.60;;;16.70;99.90;;;;;;4989222;28;20326;-61
2021/08/15 04:55:44;;;;;;;9.07;5.90;;;16.70;99.90;;;;;;4996451;28;20237;-62
2021/08/15 04:58:13;;;;;;;8.17;5.70;;;16.70;99.90;;;;;;5009414;28;20993;-61
2021/08/15 05:00:41;;;;;;;9.53;6.23;;;16.80;99.90;;;;;;5009160;28;20240;-62
2021/08/15 05:03:11;;;;;;;8.87;5.77;;;16.80;99.90;;;;;;5008953;28;20240;-61
2021/08/15 05:05:40;;;;;;;9.23;6.30;;;16.70;99.90;;;;;;5009217;28;20268;-60
2021/08/15 05:08:08;;;;;;;7.93;6.57;;;16.70;99.90;;;;;;5007211;28;20299;-62
2021/08/15 05:10:37;;;;;;;10.63;6.10;;;16.70;99.90;;;;;;5007646;28;20237;-61
2021/08/15 05:13:05;;;;;;;9.40;5.87;;;16.70;99.90;;;;;;5006138;28;20781;-61
2021/08/15 05:15:34;;;;;;;9.57;6.50;;;16.70;99.90;;;;;;5007289;28;20240;-60
2021/08/15 05:18:03;;;;;;;9.57;6.33;;;16.70;99.90;;;;;;5005443;28;20241;-60
2021/08/15 05:20:31;;;;;;;8.53;6.33;;;16.80;99.90;;;;;;5006907;28;20245;-61
2021/08/15 05:22:59;;;;;;;13.67;6.93;;;16.80;99.90;;;;;;5003640;28;20246;-61
2021/08/15 05:25:27;;;;;;;10.50;6.73;;;16.80;99.90;;;;;;5007359;28;20732;-60
2021/08/15 05:27:55;;;;;;;10.67;6.27;;;16.80;99.90;;;;;;5006575;28;20233;-61
2021/08/15 05:30:24;;;;;;;11.80;7.43;;;16.70;99.90;;;;;;5000533;28;20256;-61
2021/08/15 05:32:53;;;;;;;11.80;6.70;;;16.70;99.90;;;;;;5006872;28;20237;-61
2021/08/15 05:35:21;;;;;;;10.57;6.33;;;16.70;99.90;;;;;;5007189;28;20322;-61
2021/08/15 05:37:50;;;;;;;10.27;6.67;;;16.70;99.90;;;;;;5006733;28;20285;-61
2021/08/15 05:40:18;;;;;;;11.17;6.83;;;16.70;99.90;;;;;;5007353;28;20604;-61
2021/08/15 05:42:47;;;;;;;8.33;6.10;;;16.80;99.90;;;;;;5006106;28;20327;-62
2021/08/15 05:45:15;;;;;;;9.43;6.33;;;16.80;99.90;;;;;;5006185;28;20240;-61
2021/08/15 05:47:43;;;;;;;8.77;6.47;;;16.90;99.90;;;;;;5006650;28;20365;-61
2021/08/15 05:50:13;;;;;;;9.03;6.00;;;16.90;99.90;;;;;;5012810;28;20233;-60
2021/08/15 05:52:41;;;;;;;8.87;6.03;;;16.90;99.90;;;;;;5013720;28;20649;-61
2021/08/15 05:55:09;;;;;;;10.43;6.73;;;17.00;99.90;;;;;;5008022;28;20430;-62
2021/08/15 05:57:37;;;;;;;10.30;6.50;;;16.90;99.90;;;;;;5008561;28;20238;-62
2021/08/15 06:00:07;;;;;;;10.40;6.10;;;16.90;99.90;;;;;;5008109;28;20241;-60
2021/08/15 06:02:43;;;;;;;11.10;6.63;;;17.00;99.90;;;;;;5005921;28;20310;-61
2021/08/15 06:05:14;;;;;;;12.47;6.70;;;16.90;99.90;;;;;;5006899;28;20250;-62
2021/08/15 06:07:42;;;;;;;11.67;7.33;;;16.90;99.90;;;;;;5012046;28;20297;-60
2021/08/15 06:10:11;;;;;;;8.00;6.97;;;16.80;99.90;;;;;;5014762;28;20238;-62
2021/08/15 06:12:40;;;;;;;9.37;6.30;;;16.80;99.90;;;;;;5005429;28;20299;-62
2021/08/15 06:15:12;;;;;;;9.00;7.27;;;16.80;99.90;;;;;;5004540;28;20240;-62
2021/08/15 06:17:41;;;;;;;10.97;7.43;;;16.80;99.90;;;;;;5005844;28;20769;-61
2021/08/15 06:20:10;;;;;;;10.57;6.90;;;16.80;99.90;;;;;;5012730;28;20232;-60
2021/08/15 06:22:41;;;;;;;13.47;6.97;;;16.80;99.90;;;;;;5004882;28;20316;-61
2021/08/15 06:25:11;;;;;;;10.27;7.40;;;16.80;99.90;;;;;;5014727;28;20340;-62
2021/08/15 06:27:43;;;;;;;10.27;6.77;;;16.80;99.90;;;;;;5002649;28;20229;-61
2021/08/15 06:30:12;;;;;;;10.17;7.03;;;16.80;99.90;;;;;;5025156;28;20245;-61
2021/08/15 06:32:47;;;;;;;10.33;7.00;;;16.90;99.90;;;;;;5012855;28;20237;-62
2021/08/15 06:35:17;;;;;;;9.27;7.00;;;16.90;99.90;;;;;;5011120;28;20241;-62
2021/08/15 06:37:50;;;;;;;10.30;7.00;;;16.90;99.90;;;;;;5011724;28;20249;-60
2021/08/15 06:40:19;;;;;;;9.97;6.53;;;17.00;99.90;;;;;;5009810;28;20780;-62
2021/08/15 06:42:47;;;;;;;10.53;7.67;;;17.00;99.90;;;;;;5005442;28;20246;-61
2021/08/15 06:45:18;;;;;;;11.67;7.13;;;17.00;99.90;;;;;;5005678;28;20265;-61
2021/08/15 06:47:46;;;;;;;9.43;7.03;;;17.10;99.90;;;;;;5004678;28;20241;-61
2021/08/15 06:50:15;;;;;;;11.77;7.70;;;17.10;99.90;;;;;;5005033;28;20654;-61
2021/08/15 06:52:43;;;;;;;13.30;7.40;;;17.10;99.90;;;;;;5003549;28;20237;-62
2021/08/15 06:55:12;;;;;;;11.83;7.60;;;17.10;99.90;;;;;;5004874;28;20237;-62
2021/08/15 06:57:41;;;;;;;11.50;7.43;;;17.10;99.90;;;;;;5002478;28;20756;-63
2021/08/15 07:00:10;;;;;;;8.35;6.63;;;17.20;99.90;;;;;;3214182;28;10022462;-61
2021/08/15 07:02:39;;;;;;;10.73;7.00;;;17.70;99.90;;;;;;2751510;28;10002049;-61
2021/08/15 07:05:09;;;;;;;10.77;7.50;;;17.50;99.90;;;;;;4988087;28;21096;-62
2021/08/15 07:07:38;;;;;;;9.80;6.67;;;17.50;99.90;;;;;;4992174;28;20280;-61
2021/08/15 07:10:07;;;;;;;9.43;7.33;;;17.50;99.90;;;;;;4990017;28;20233;-61
2021/08/15 07:12:36;;;;;;;8.87;7.07;;;17.50;99.90;;;;;;4989412;28;20323;-61
2021/08/15 07:15:06;;;;;;;11.23;7.83;;;17.50;99.90;;;;;;4987296;28;20233;-60
2021/08/15 07:17:37;;;;;;;11.70;7.73;;;17.50;99.90;;;;;;4993011;28;20691;-61
2021/08/15 07:20:07;;;;;;;11.30;6.97;;;17.60;99.90;;;;;;5018462;28;20318;-62
2021/08/15 07:22:35;;;;;;;10.80;8.10;;;17.70;99.90;;;;;;5011781;28;20232;-61
2021/08/15 07:25:04;;;;;;;12.40;7.80;;;17.80;99.90;;;;;;5012665;28;20738;-61
2021/08/15 07:27:36;;;;;;;12.53;7.10;;;17.80;99.90;;;;;;5013067;28;20757;-61
2021/08/15 07:30:05;;;;;;;17.00;8.53;;;17.90;99.90;;;;;;5015298;28;20246;-62
2021/08/15 07:32:34;;;;;;;12.73;7.90;;;18.00;99.90;;;;;;5011698;28;20341;-62
2021/08/15 07:35:02;;;;;;;12.87;7.43;;;18.00;99.90;;;;;;5015087;28;20316;-61
2021/08/15 07:37:30;;;;;;;11.00;7.50;;;18.00;99.90;;;;;;5012075;28;20658;-60
2021/08/15 07:39:58;;;;;;;12.40;8.23;;;18.00;99.90;;;;;;5014548;28;20227;-61
2021/08/15 07:42:26;;;;;;;14.93;7.80;;;18.10;99.90;;;;;;5016632;28;20267;-61
2021/08/15 07:45:00;;;;;;;9.67;7.47;;;18.10;99.90;;;;;;5013556;28;20682;-61
2021/08/15 07:47:28;;;;;;;11.73;7.37;;;18.20;99.90;;;;;;5015762;28;20383;-62
2021/08/15 07:49:56;;;;;;;13.13;7.27;;;18.20;99.90;;;;;;5015259;28;20238;-61
2021/08/15 07:52:24;;;;;;;15.77;8.20;;;18.20;99.90;;;;;;5006082;28;20317;-61
2021/08/15 07:54:52;;;;;;;11.57;8.17;;;18.20;99.90;;;;;;5006327;28;20239;-62
2021/08/15 07:57:20;;;;;;;10.50;7.70;;;18.30;99.90;;;;;;5005028;28;20628;-62
2021/08/15 07:59:49;;;;;;;10.23;7.93;;;18.30;99.90;;;;;;5005558;28;20686;-61
2021/08/15 08:02:18;;;;;;;13.83;7.33;;;18.30;99.90;;;;;;4997850;28;21251;-61
2021/08/15 08:04:48;;;;;;;12.07;8.17;;;18.40;99.90;;;;;;5005598;28;20650;-61
2021/08/15 08:07:19;;;;;;;12.50;7.97;;;18.40;99.90;;;;;;5006289;28;20426;-61
2021/08/15 08:09:47;;;;;;;11.73;8.00;;;18.50;99.90;;;;;;5014073;28;20746;-61
2021/08/15 08:12:16;;;;;;;12.77;7.87;;;18.50;99.90;;;;;;5015350;28;20238;-62
2021/08/15 08:14:45;;;;;;;14.03;8.10;;;18.60;99.90;;;;;;5012983;28;20373;-61
2021/08/15 08:17:13;;;;;;;15.17;8.30;;;18.70;99.90;;;;;;5012096;28;20232;-61
2021/08/15 08:19:44;;;;;;;10.20;7.80;;;18.90;99.90;;;;;;5016435;28;20244;-61
2021/08/15 08:22:14;;;;;;;12.93;7.67;;;19.00;99.90;;;;;;5009314;28;20242;-62
2021/08/15 08:24:42;;;;;;;12.10;7.77;;;19.00;99.90;;;;;;5005528;28;20235;-61
2021/08/15 08:27:11;;;;;;;11.13;8.27;;;19.00;99.90;;;;;;5009168;28;20236;-61
2021/08/15 08:29:39;;;;;;;12.00;8.00;;;18.90;99.90;;;;;;5008619;28;20255;-61
2021/08/15 08:32:08;;;;;;;13.87;8.30;;;18.90;99.90;;;;;;5012429;28;20506;-62
2021/08/15 08:34:36;;;;;;;9.83;7.10;;;18.90;99.90;;;;;;5015048;28;20275;-62
2021/08/15 08:37:06;;;;;;;10.13;7.97;;;18.80;99.90;;;;;;5015663;28;20250;-60
2021/08/15 08:39:34;;;;;;;9.30;7.67;;;18.80;99.90;;;;;;5014303;28;20239;-62
2021/08/15 08:42:04;;;;;;;9.87;7.60;;;18.90;99.90;;;;;;5012004;28;20242;-62
2021/08/15 08:44:34;;;;;;;12.67;7.57;;;19.00;99.90;;;;;;5009635;28;20693;-61
2021/08/15 08:47:04;;;;;;;10.90;7.73;;;19.20;99.90;;;;;;5004783;28;20244;-62
2021/08/15 08:49:34;;;;;;;8.87;7.33;;;19.30;99.90;;;;;;5005536;28;20346;-61
2021/08/15 08:52:02;;;;;;;12.43;8.30;;;19.40;99.90;;;;;;5005508;28;20240;-61
2021/08/15 08:54:32;;;;;;;11.30;7.77;;;19.60;99.90;;;;;;5005391;28;20240;-62
2021/08/15 08:57:01;;;;;;;10.67;7.43;;;19.50;99.90;;;;;;5004853;28;20318;-62
2021/08/15 08:59:29;;;;;;;12.67;8.13;;;19.50;99.90;;;;;;5006600;28;20232;-62
2021/08/15 09:01:57;;;;;;;13.20;9.47;;;19.50;99.90;;;;;;5008213;28;20776;-61
2021/08/15 09:04:26;;;;;;;12.53;8.03;;;19.40;99.90;;;;;;5013249;28;20245;-62
2021/08/15 09:06:54;;;;;;;12.03;8.13;;;19.40;99.90;;;;;;5004995;28;20271;-63
2021/08/15 09:09:22;;;;;;;12.57;7.57;;;19.40;99.90;;;;;;5007593;28;20264;-62
2021/08/15 09:11:59;;;;;;;14.23;8.47;;;19.50;99.90;;;;;;5006842;28;20242;-62
2021/08/15 09:14:31;;;;;;;13.50;8.67;;;19.50;99.90;;;;;;5006093;28;20297;-62
2021/08/15 09:17:00;;;;;;;11.43;8.47;;;19.50;99.90;;;;;;4992934;28;20299;-62
2021/08/15 09:19:32;;;;;;;13.97;8.40;;;19.50;99.90;;;;;;4997954;28;20259;-62
2021/08/15 09:22:19;;;;;;;12.47;7.97;;;19.50;99.90;;;;;;4994165;28;20323;-61
2021/08/15 09:24:54;;;;;;;11.43;8.10;;;19.50;99.90;;;;;;5012741;28;20322;-62
2021/08/15 09:27:29;;;;;;;12.80;8.17;;;19.60;99.90;;;;;;5011908;28;20255;-62
2021/08/15 09:30:20;;;;;;;11.83;7.80;;;19.60;99.90;;;;;;5011524;28;20239;-62
2021/08/15 09:32:53;;;;;;;11.50;7.70;;;19.60;99.90;;;;;;5016692;28;20251;-63
2021/08/15 09:35:25;;;;;;;12.97;8.67;;;19.60;99.90;;;;;;5013335;28;20255;-61
2021/08/15 09:38:06;;;;;;;11.53;8.07;;;19.60;99.90;;;;;;5014620;28;20258;-62
2021/08/15 09:40:37;;;;;;;13.30;8.40;;;19.50;99.90;;;;;;5007573;28;20240;-61
2021/08/15 09:43:08;;;;;;;14.30;8.53;;;19.40;99.90;;;;;;5006494;28;20264;-62
2021/08/15 09:45:54;;;;;;;13.07;8.53;;;19.40;99.90;;;;;;5007260;28;20248;-62
2021/08/15 09:48:25;;;;;;;13.43;8.70;;;19.30;99.90;;;;;;5002140;28;20708;-61
2021/08/15 09:51:15;;;;;;;13.43;8.20;;;19.40;99.90;;;;;;5007558;28;20240;-61
2021/08/15 09:53:46;;;;;;;14.73;8.53;;;19.50;99.90;;;;;;5006109;28;20550;-62
2021/08/15 09:56:15;;;;;;;13.70;9.07;;;19.60;99.90;;;;;;5007337;28;20232;-61
2021/08/15 09:58:44;;;;;;;10.90;8.00;;;19.70;99.90;;;;;;5006342;28;20704;-62
2021/08/15 10:01:12;;;;;;;12.33;8.20;;;19.90;99.90;;;;;;5006338;28;20351;-62
2021/08/15 10:03:42;;;;;;;14.93;8.90;;;20.10;99.90;;;;;;5009379;28;20274;-62
2021/08/15 10:06:15;;;;;;;12.77;7.40;;;20.20;99.90;;;;;;5005373;28;20235;-62
2021/08/15 10:08:47;;;;;;;11.63;7.60;;;20.50;99.90;;;;;;5004934;28;20290;-62
2021/08/15 10:11:15;;;;;;;12.87;8.37;;;20.70;99.90;;;;;;5008755;28;20315;-62
2021/08/15 10:13:45;;;;;;;10.43;8.03;;;20.80;99.90;;;;;;5004712;28;20307;-62
2021/08/15 10:16:14;;;;;;;18.43;8.40;;;20.90;99.90;;;;;;5005470;28;20237;-62
2021/08/15 10:18:47;;;;;;;12.03;8.53;;;21.10;99.90;;;;;;5005759;28;20255;-63
2021/08/15 10:21:19;;;;;;;13.63;8.53;;;21.30;99.90;;;;;;5007378;28;20294;-62
2021/08/15 10:23:48;;;;;;;13.20;8.97;;;21.30;99.90;;;;;;5006378;28;20259;-61
2021/08/15 10:26:39;;;;;;;15.70;7.97;;;21.40;99.90;;;;;;5000923;28;20329;-63
2021/08/15 10:29:41;;;;;;;12.40;7.80;;;21.50;99.90;;;;;;5004760;28;20260;-61
2021/08/15 10:32:17;;;;;;;13.20;8.47;;;21.70;99.90;;;;;;5005201;28;20243;-61
2021/08/15 10:35:13;;;;;;;10.97;8.00;;;22.10;99.90;;;;;;5015537;28;20327;-62
2021/08/15 10:37:41;;;;;;;15.83;8.63;;;22.90;99.90;;;;;;5011377;28;20340;-62
2021/08/15 10:40:50;;;;;;;12.57;8.47;;;23.10;99.90;;;;;;5008981;28;20641;-63
2021/08/15 10:43:51;;;;;;;13.77;8.67;;;23.30;99.90;;;;;;4996576;28;20321;-62
2021/08/15 10:46:22;;;;;;;16.33;8.67;;;23.30;99.90;;;;;;4980162;28;20302;-62
2021/08/15 10:48:53;;;;;;;14.43;8.03;;;23.60;99.90;;;;;;4987780;28;20598;-63
2021/08/15 10:51:47;;;;;;;12.53;7.73;;;23.90;99.90;;;;;;4981300;28;20602;-62
2021/08/15 10:55:06;;;;;;;14.83;8.43;;;24.10;99.90;;;;;;4986817;28;20230;-62
2021/08/15 10:57:36;;;;;;;12.47;6.30;;;24.20;99.90;;;;;;4991623;28;20246;-61
2021/08/15 11:00:47;;;;;;;12.57;7.40;;;24.60;99.90;;;;;;4987490;28;20242;-61
2021/08/15 11:03:49;;;;;;;10.60;5.93;;;25.40;99.90;;;;;;4980932;28;20239;-62
2021/08/15 11:06:50;;;;;;;14.20;7.37;;;26.50;99.90;;;;;;4984413;28;20299;-63
2021/08/15 11:09:20;;;;;;;14.70;7.07;;;26.60;99.90;;;;;;4990279;28;20266;-63
2021/08/15 11:12:12;;;;;;;10.70;6.13;;;27.00;99.90;;;;;;4986666;28;20248;-61
2021/08/15 11:14:55;;;;;;;14.27;6.30;;;27.10;99.90;;;;;;4985930;28;20241;-63
2021/08/15 11:17:24;;;;;;;12.70;7.13;;;26.90;99.90;;;;;;5014165;28;20620;-62
2021/08/15 11:19:52;;;;;;;10.80;6.07;;;27.00;99.90;;;;;;5013168;28;20232;-63
2021/08/15 11:22:29;;;;;;;14.20;6.20;;;27.00;99.90;;;;;;5010030;28;20244;-62
2021/08/15 11:25:00;;;;;;;12.80;7.40;;;27.20;99.90;;;;;;4990984;28;20261;-62
2021/08/15 11:27:35;;;;;;;9.17;5.77;;;27.30;99.90;;;;;;4992279;28;20329;-62
2021/08/15 11:30:10;;;;;;;12.57;7.17;;;27.90;99.90;;;;;;4971515;28;20295;-63
2021/08/15 11:32:38;;;;;;;10.03;6.37;;;28.20;99.90;;;;;;4967191;28;20252;-64
2021/08/15 11:35:09;;;;;;;9.43;5.73;;;28.00;99.90;;;;;;4972941;28;20240;-62
2021/08/15 11:37:40;;;;;;;9.37;6.27;;;28.10;99.90;;;;;;4973021;28;20269;-64
2021/08/15 11:40:15;;;;;;;10.33;6.00;;;27.50;99.90;;;;;;4972124;28;21071;-62
2021/08/15 11:42:44;;;;;;;12.13;5.67;;;27.00;99.90;;;;;;4967720;28;20272;-63
2021/08/15 11:45:12;;;;;;;8.83;5.87;;;26.50;99.90;;;;;;4966929;28;20768;-62
2021/08/15 11:47:41;;;;;;;10.37;6.00;;;26.10;99.90;;;;;;4966603;28;20332;-62
2021/08/15 11:50:16;;;;;;;11.33;6.20;;;26.00;99.90;;;;;;4976432;28;20232;-61
2021/08/15 11:52:46;;;;;;;11.77;6.20;;;26.70;99.90;;;;;;4978248;28;20235;-61
2021/08/15 11:55:24;;;;;;;6.87;5.23;;;27.10;99.90;;;;;;4976340;28;20288;-62
2021/08/15 11:57:54;;;;;;;8.73;5.30;;;27.30;99.90;;;;;;4975379;28;20264;-62
2021/08/15 12:00:30;;;;;;;8.33;5.17;;;27.20;99.90;;;;;;4973806;28;20290;-63
2021/08/15 12:03:03;;;;;;;7.33;4.73;;;27.20;99.90;;;;;;5003251;28;20289;-63
2021/08/15 12:05:35;;;;;;;8.60;5.07;;;27.50;99.90;;;;;;5009293;28;20259;-62
2021/08/15 12:08:09;;;;;;;9.83;4.90;;;27.50;99.90;;;;;;5004348;28;20256;-63
2021/08/15 12:10:41;;;;;;;9.53;4.77;;;27.40;99.90;;;;;;5005067;28;20236;-62
2021/08/15 12:13:18;;;;;;;5.63;4.67;;;27.50;99.90;;;;;;5004007;28;20272;-63
2021/08/15 12:15:50;;;;;;;8.63;4.67;;;27.10;99.90;;;;;;5005066;28;20334;-63
2021/08/15 12:18:30;;;;;;;7.07;4.40;;;27.00;99.90;;;;;;5005867;28;20743;-62
2021/08/15 12:21:00;;;;;;;7.33;4.60;;;27.00;99.90;;;;;;5007623;28;20719;-63
2021/08/15 12:23:31;;;;;;;5.80;4.20;;;26.90;99.90;;;;;;5011511;28;20293;-62
2021/08/15 12:26:01;;;;;;;8.47;4.43;;;26.60;99.90;;;;;;5003199;28;20327;-62
2021/08/15 12:28:31;;;;;;;7.80;4.60;;;26.60;99.90;;;;;;5005525;28;20254;-63
2021/08/15 12:31:19;;;;;;;8.60;4.30;;;26.60;99.90;;;;;;5003979;28;20895;-62
2021/08/15 12:33:48;;;;;;;5.03;3.77;;;26.40;99.90;;;;;;5006649;28;20248;-62
2021/08/15 12:36:21;;;;;;;6.97;4.10;;;26.50;99.90;;;;;;5001206;28;20286;-63
2021/08/15 12:38:51;;;;;;;5.60;3.60;;;26.50;99.90;;;;;;5008427;28;20646;-62
2021/08/15 12:41:28;;;;;;;7.10;3.80;;;26.30;99.90;;;;;;5008533;28;20252;-62
2021/08/15 12:44:09;;;;;;;7.43;4.27;;;26.20;99.90;;;;;;5008790;28;20244;-63
2021/08/15 12:46:38;;;;;;;8.40;3.77;;;26.30;99.90;;;;;;4987491;28;20241;-62
2021/08/15 12:49:22;;;;;;;7.03;3.73;;;26.30;99.90;;;;;;4985978;28;20304;-62
2021/08/15 12:51:51;;;;;;;7.73;3.43;;;26.40;99.90;;;;;;4986024;28;20320;-63
2021/08/15 12:54:21;;;;;;;6.63;3.80;;;26.40;99.90;;;;;;4986631;28;20581;-62
2021/08/15 12:56:49;;;;;;;5.23;3.53;;;26.40;99.90;;;;;;4989560;28;20248;-62
2021/08/15 12:59:18;;;;;;;5.63;3.47;;;26.40;99.90;;;;;;4980996;28;20271;-62